Time;durP1;ratioP1;P1;durP2;ratioP2;P2;SDS_P1;SDS_P2;PMS_P1;PMS_P2;Temp;Humidity;BMP_temperature;BMP_pressure;BME280_temperature;BME280_humidity;BME280_pressure;Samples;Min_cycle;Max_cycle;Signal;HPM_P1;HPM_P2
2023/11/01 00:01:44;;;;;;;8.57;6.80;;;;;;;;;;4940473;29;20950;-43
2023/11/01 00:04:09;;;;;;;8.77;6.87;;;;;;;;;;4943811;29;20425;-43
2023/11/01 00:06:35;;;;;;;17.00;12.93;;;;;;;;;;4933842;29;20472;-43
2023/11/01 00:09:01;;;;;;;11.20;8.70;;;;;;;;;;4933586;29;20429;-43
2023/11/01 00:11:27;;;;;;;7.73;6.27;;;;;;;;;;4940018;29;20418;-44
2023/11/01 00:13:53;;;;;;;8.30;6.83;;;;;;;;;;4937180;29;20420;-44
2023/11/01 00:16:19;;;;;;;6.93;5.90;;;;;;;;;;4940671;29;20404;-43
2023/11/01 00:18:45;;;;;;;9.07;8.20;;;;;;;;;;4940321;29;20471;-43
2023/11/01 00:21:11;;;;;;;8.67;7.63;;;;;;;;;;4943663;29;20485;-43
2023/11/01 00:23:37;;;;;;;10.50;9.50;;;;;;;;;;4938552;29;20450;-43
2023/11/01 00:26:06;;;;;;;10.07;9.17;;;;;;;;;;4939962;29;20464;-43
2023/11/01 00:28:32;;;;;;;7.60;6.80;;;;;;;;;;4941663;29;20436;-44
2023/11/01 00:30:58;;;;;;;8.47;7.50;;;;;;;;;;4942316;29;20452;-44
2023/11/01 00:33:24;;;;;;;8.20;7.33;;;;;;;;;;4942553;29;20437;-44
2023/11/01 00:35:50;;;;;;;10.67;9.57;;;;;;;;;;4940386;29;20926;-44
2023/11/01 00:38:20;;;;;;;11.67;10.67;;;;;;;;;;4936876;29;21016;-43
2023/11/01 00:40:46;;;;;;;9.80;8.90;;;;;;;;;;4933528;29;20449;-44
2023/11/01 00:43:12;;;;;;;9.77;8.83;;;;;;;;;;4941433;29;20423;-43
2023/11/01 00:45:38;;;;;;;10.97;9.87;;;;;;;;;;4942812;29;20424;-44
2023/11/01 00:48:05;;;;;;;9.07;8.27;;;;;;;;;;4936593;29;20478;-43
2023/11/01 00:50:31;;;;;;;9.47;8.57;;;;;;;;;;4935297;29;20430;-44
2023/11/01 00:52:57;;;;;;;9.77;8.80;;;;;;;;;;4936494;29;20888;-44
2023/11/01 00:55:23;;;;;;;10.47;9.47;;;;;;;;;;4936578;29;20408;-44
2023/11/01 00:57:49;;;;;;;9.97;9.07;;;;;;;;;;4936447;29;20423;-44
2023/11/01 01:00:16;;;;;;;10.40;9.43;;;;;;;;;;4941784;29;20433;-43
2023/11/01 01:02:45;;;;;;;10.83;9.83;;;;;;;;;;4940730;29;20408;-45
2023/11/01 01:05:11;;;;;;;10.13;9.23;;;;;;;;;;4936383;29;20906;-44
2023/11/01 01:07:37;;;;;;;9.53;8.63;;;;;;;;;;4939092;29;20492;-44
2023/11/01 01:10:03;;;;;;;10.83;9.83;;;;;;;;;;4935427;29;20835;-43
2023/11/01 01:12:29;;;;;;;9.77;8.87;;;;;;;;;;4940885;29;20471;-44
2023/11/01 01:14:57;;;;;;;10.67;9.67;;;;;;;;;;4952130;28;20422;-43
2023/11/01 01:17:23;;;;;;;11.17;10.20;;;;;;;;;;4936148;29;20416;-43
2023/11/01 01:19:49;;;;;;;9.87;8.90;;;;;;;;;;4936638;29;20495;-43
2023/11/01 01:22:15;;;;;;;10.30;9.33;;;;;;;;;;4935982;29;20528;-43
2023/11/01 01:24:41;;;;;;;12.40;11.30;;;;;;;;;;4940514;29;20432;-44
2023/11/01 01:27:07;;;;;;;11.47;10.47;;;;;;;;;;4941980;29;20457;-43
2023/11/01 01:29:32;;;;;;;11.70;10.60;;;;;;;;;;4935074;29;20900;-43
2023/11/01 01:31:58;;;;;;;11.77;10.73;;;;;;;;;;4937317;29;20916;-43
2023/11/01 01:34:24;;;;;;;12.17;11.27;;;;;;;;;;4936574;29;20923;-44
2023/11/01 01:36:50;;;;;;;11.43;10.40;;;;;;;;;;4937787;28;20952;-43
2023/11/01 01:39:16;;;;;;;16.93;15.13;;;;;;;;;;4935024;29;20786;-43
2023/11/01 01:41:42;;;;;;;11.23;10.33;;;;;;;;;;4941502;29;20526;-43
2023/11/01 01:44:08;;;;;;;9.97;9.07;;;;;;;;;;4943158;29;20422;-43
2023/11/01 01:46:34;;;;;;;9.80;8.80;;;;;;;;;;4936879;28;20472;-44
2023/11/01 01:49:00;;;;;;;9.70;8.80;;;;;;;;;;4938169;28;20498;-44
2023/11/01 01:51:27;;;;;;;12.40;11.30;;;;;;;;;;4937624;29;20432;-44
2023/11/01 01:53:54;;;;;;;10.07;9.13;;;;;;;;;;4937570;29;20420;-42
2023/11/01 01:56:20;;;;;;;11.10;10.10;;;;;;;;;;4941237;29;20416;-43
2023/11/01 01:58:46;;;;;;;12.20;11.10;;;;;;;;;;4935436;29;20426;-43
2023/11/01 02:01:13;;;;;;;12.90;11.80;;;;;;;;;;4933136;29;20434;-43
2023/11/01 02:03:39;;;;;;;12.60;11.40;;;;;;;;;;4937415;29;20423;-43
2023/11/01 02:06:06;;;;;;;11.47;10.47;;;;;;;;;;4935257;29;20460;-44
2023/11/01 02:08:32;;;;;;;10.67;9.67;;;;;;;;;;4939344;29;20414;-44
2023/11/01 02:10:59;;;;;;;11.80;10.70;;;;;;;;;;4935304;29;20439;-44
2023/11/01 02:13:25;;;;;;;11.80;10.80;;;;;;;;;;4935200;29;20414;-44
2023/11/01 02:15:51;;;;;;;11.50;10.50;;;;;;;;;;4936118;29;20427;-44
2023/11/01 02:18:17;;;;;;;12.23;11.30;;;;;;;;;;4935063;29;20419;-45
2023/11/01 02:20:45;;;;;;;12.20;11.10;;;;;;;;;;4934235;29;20444;-43
2023/11/01 02:23:12;;;;;;;11.10;10.03;;;;;;;;;;4940525;29;20441;-44
2023/11/01 02:25:38;;;;;;;11.73;10.67;;;;;;;;;;4941813;29;20418;-44
2023/11/01 02:28:05;;;;;;;10.47;9.57;;;;;;;;;;4936031;29;20429;-43
2023/11/01 02:30:31;;;;;;;12.17;11.17;;;;;;;;;;4934197;29;20437;-44
2023/11/01 02:32:57;;;;;;;12.20;11.13;;;;;;;;;;4934690;29;20824;-44
2023/11/01 02:35:23;;;;;;;11.50;10.50;;;;;;;;;;4939007;29;20417;-43
2023/11/01 02:37:49;;;;;;;12.33;11.33;;;;;;;;;;4940479;29;20420;-44
2023/11/01 02:40:15;;;;;;;14.33;13.20;;;;;;;;;;4933888;29;20494;-43
2023/11/01 02:42:45;;;;;;;12.67;11.63;;;;;;;;;;4935760;29;20427;-43
2023/11/01 02:45:12;;;;;;;11.43;10.43;;;;;;;;;;4937283;29;20417;-44
2023/11/01 02:47:42;;;;;;;11.07;10.07;;;;;;;;;;4938424;29;20467;-44
2023/11/01 02:50:11;;;;;;;11.90;10.80;;;;;;;;;;4926188;29;20937;-44
2023/11/01 02:52:38;;;;;;;12.70;11.60;;;;;;;;;;4934603;29;20464;-44
2023/11/01 02:55:07;;;;;;;11.30;10.30;;;;;;;;;;4942057;29;20455;-43
2023/11/01 02:57:33;;;;;;;11.07;10.17;;;;;;;;;;4935441;29;20425;-43
2023/11/01 03:00:00;;;;;;;10.50;9.50;;;;;;;;;;4933740;29;20439;-43
2023/11/01 03:02:26;;;;;;;11.43;10.33;;;;;;;;;;4934501;29;21083;-44
2023/11/01 03:04:52;;;;;;;11.33;10.30;;;;;;;;;;4934406;29;20461;-44
2023/11/01 03:07:18;;;;;;;11.47;10.37;;;;;;;;;;4938960;29;20459;-43
2023/11/01 03:09:44;;;;;;;10.00;9.00;;;;;;;;;;4937383;29;20426;-44
2023/11/01 03:12:10;;;;;;;9.97;9.07;;;;;;;;;;4934630;28;20410;-43
2023/11/01 03:14:39;;;;;;;9.57;8.63;;;;;;;;;;4940981;28;20552;-44
2023/11/01 03:17:05;;;;;;;8.80;8.00;;;;;;;;;;4942327;29;20418;-43
2023/11/01 03:19:31;;;;;;;10.50;9.40;;;;;;;;;;4937560;28;20505;-43
2023/11/01 03:21:57;;;;;;;10.17;9.23;;;;;;;;;;4945273;29;20550;-44
2023/11/01 03:24:23;;;;;;;9.07;8.17;;;;;;;;;;4938225;29;20414;-44
2023/11/01 03:26:49;;;;;;;10.40;9.40;;;;;;;;;;4940628;28;20471;-44
2023/11/01 03:29:16;;;;;;;12.17;10.63;;;;;;;;;;4938311;29;20435;-44
2023/11/01 03:31:42;;;;;;;9.93;8.90;;;;;;;;;;4941185;29;20439;-44
2023/11/01 03:34:08;;;;;;;8.50;7.70;;;;;;;;;;4938011;29;20412;-44
2023/11/01 03:36:34;;;;;;;8.93;8.03;;;;;;;;;;4944955;29;20421;-43
2023/11/01 03:39:00;;;;;;;9.57;8.67;;;;;;;;;;4938470;29;20911;-43
2023/11/01 03:41:26;;;;;;;9.40;8.40;;;;;;;;;;4937356;28;20848;-44
2023/11/01 03:43:52;;;;;;;10.43;9.43;;;;;;;;;;4941924;28;20452;-45
2023/11/01 03:46:19;;;;;;;9.80;8.83;;;;;;;;;;4940279;28;21025;-44
2023/11/01 03:48:45;;;;;;;9.77;8.77;;;;;;;;;;4940465;29;20496;-44
2023/11/01 03:51:11;;;;;;;8.67;7.77;;;;;;;;;;4944467;28;21008;-43
2023/11/01 03:53:37;;;;;;;8.97;8.07;;;;;;;;;;4938523;29;20959;-45
2023/11/01 03:56:03;;;;;;;9.27;8.27;;;;;;;;;;4939933;29;20830;-43
2023/11/01 03:58:30;;;;;;;8.97;8.03;;;;;;;;;;4941561;29;20411;-43
2023/11/01 04:00:56;;;;;;;8.87;7.90;;;;;;;;;;4936745;29;20877;-44
2023/11/01 04:03:23;;;;;;;9.93;8.93;;;;;;;;;;4932786;29;20423;-44
2023/11/01 04:05:49;;;;;;;10.30;9.30;;;;;;;;;;4935718;29;20456;-44
2023/11/01 04:08:15;;;;;;;9.97;8.97;;;;;;;;;;4937431;29;20441;-44
2023/11/01 04:10:41;;;;;;;10.33;9.37;;;;;;;;;;4938909;28;20782;-44
2023/11/01 04:13:07;;;;;;;9.90;8.93;;;;;;;;;;4937397;29;20416;-44
2023/11/01 04:15:33;;;;;;;10.50;9.43;;;;;;;;;;4942720;29;20414;-43
2023/11/01 04:17:59;;;;;;;11.00;10.00;;;;;;;;;;4944212;29;20418;-44
2023/11/01 04:20:25;;;;;;;10.57;9.53;;;;;;;;;;4936381;29;20505;-44
2023/11/01 04:22:51;;;;;;;10.03;9.03;;;;;;;;;;4939319;29;20428;-44
2023/11/01 04:25:17;;;;;;;9.13;8.23;;;;;;;;;;4951559;28;20955;-44
2023/11/01 04:27:44;;;;;;;10.50;9.50;;;;;;;;;;4940059;29;20470;-44
2023/11/01 04:30:11;;;;;;;9.40;8.40;;;;;;;;;;4941663;29;20502;-43
2023/11/01 04:32:37;;;;;;;10.03;9.03;;;;;;;;;;4943856;29;20942;-43
2023/11/01 04:35:03;;;;;;;9.53;8.60;;;;;;;;;;4936922;29;20509;-43
2023/11/01 04:37:30;;;;;;;10.13;9.23;;;;;;;;;;4939092;29;20456;-44
2023/11/01 04:39:56;;;;;;;10.47;9.47;;;;;;;;;;4940073;29;20430;-45
2023/11/01 04:42:22;;;;;;;10.47;9.47;;;;;;;;;;4936868;29;20451;-43
2023/11/01 04:44:48;;;;;;;10.57;9.57;;;;;;;;;;4936844;29;20415;-45
2023/11/01 04:47:14;;;;;;;11.80;10.80;;;;;;;;;;4943372;28;20467;-43
2023/11/01 04:49:40;;;;;;;11.80;10.80;;;;;;;;;;4935992;29;20450;-44
2023/11/01 04:52:06;;;;;;;11.97;10.93;;;;;;;;;;4938828;29;20818;-43
2023/11/01 04:54:33;;;;;;;11.23;10.23;;;;;;;;;;4936720;29;20407;-43
2023/11/01 04:57:00;;;;;;;11.50;10.50;;;;;;;;;;4941720;29;20414;-44
2023/11/01 04:59:27;;;;;;;17.03;15.40;;;;;;;;;;4941076;29;20455;-44
2023/11/01 05:01:53;;;;;;;13.97;12.67;;;;;;;;;;4938400;29;20404;-44
2023/11/01 05:04:19;;;;;;;12.30;11.40;;;;;;;;;;4936446;29;20436;-43
2023/11/01 05:06:45;;;;;;;12.67;11.63;;;;;;;;;;4938579;29;20500;-44
2023/11/01 05:09:12;;;;;;;18.03;16.20;;;;;;;;;;4939259;29;20501;-44
2023/11/01 05:11:38;;;;;;;13.00;11.97;;;;;;;;;;4936287;29;20783;-44
2023/11/01 05:14:04;;;;;;;13.20;12.17;;;;;;;;;;4936253;29;20766;-44
2023/11/01 05:16:30;;;;;;;12.77;11.67;;;;;;;;;;4936489;29;20461;-44
2023/11/01 05:18:56;;;;;;;13.77;12.60;;;;;;;;;;4936259;29;20426;-44
2023/11/01 05:21:22;;;;;;;12.50;11.50;;;;;;;;;;4936721;29;20430;-44
2023/11/01 05:23:48;;;;;;;13.33;12.23;;;;;;;;;;4938424;29;20949;-45
2023/11/01 05:26:15;;;;;;;13.97;12.90;;;;;;;;;;4941182;29;20462;-45
2023/11/01 05:28:42;;;;;;;12.80;11.70;;;;;;;;;;4942742;29;20501;-44
2023/11/01 05:31:08;;;;;;;13.13;12.03;;;;;;;;;;4927873;29;20437;-44
2023/11/01 05:33:34;;;;;;;13.17;12.10;;;;;;;;;;4937892;29;20431;-44
2023/11/01 05:36:06;;;;;;;14.67;13.50;;;;;;;;;;4939167;29;20418;-44
2023/11/01 05:38:32;;;;;;;13.90;12.80;;;;;;;;;;4935867;29;20447;-44
2023/11/01 05:40:58;;;;;;;13.93;12.80;;;;;;;;;;4936027;29;20432;-44
2023/11/01 05:43:24;;;;;;;13.70;12.60;;;;;;;;;;4941315;29;20410;-44
2023/11/01 05:45:50;;;;;;;15.07;13.87;;;;;;;;;;4935455;29;20477;-44
2023/11/01 05:48:16;;;;;;;13.50;12.43;;;;;;;;;;4937635;29;20488;-44
2023/11/01 05:50:43;;;;;;;14.30;13.20;;;;;;;;;;4938247;28;20526;-44
2023/11/01 05:53:10;;;;;;;14.20;13.10;;;;;;;;;;4950303;28;20440;-43
2023/11/01 05:55:37;;;;;;;14.43;13.23;;;;;;;;;;4941463;29;20425;-45
2023/11/01 05:58:07;;;;;;;13.53;12.43;;;;;;;;;;4935961;29;20418;-45
2023/11/01 06:00:33;;;;;;;14.50;13.30;;;;;;;;;;4935373;29;20427;-44
2023/11/01 06:02:59;;;;;;;14.13;13.03;;;;;;;;;;4936352;29;20517;-45
2023/11/01 06:05:25;;;;;;;13.43;12.43;;;;;;;;;;4938830;29;20442;-44
2023/11/01 06:07:51;;;;;;;16.00;14.83;;;;;;;;;;4940204;29;20465;-44
2023/11/01 06:10:17;;;;;;;15.70;14.57;;;;;;;;;;4934498;29;20437;-44
2023/11/01 06:12:44;;;;;;;15.80;14.60;;;;;;;;;;4935307;29;20445;-44
2023/11/01 06:15:10;;;;;;;17.10;15.80;;;;;;;;;;4936937;29;20496;-44
2023/11/01 06:17:39;;;;;;;17.70;16.50;;;;;;;;;;4932517;29;20426;-43
2023/11/01 06:20:06;;;;;;;15.53;14.43;;;;;;;;;;4934506;29;20925;-44
2023/11/01 06:22:32;;;;;;;17.00;15.77;;;;;;;;;;4939712;29;20460;-43
2023/11/01 06:25:00;;;;;;;13.87;12.83;;;;;;;;;;4941556;29;20817;-43
2023/11/01 06:27:26;;;;;;;14.50;13.40;;;;;;;;;;4935087;29;20818;-44
2023/11/01 06:29:52;;;;;;;16.23;15.03;;;;;;;;;;4936056;29;20429;-44
2023/11/01 06:32:18;;;;;;;14.93;13.83;;;;;;;;;;4938489;28;20428;-44
2023/11/01 06:34:44;;;;;;;15.83;14.70;;;;;;;;;;4939764;29;20508;-44
2023/11/01 06:37:10;;;;;;;16.40;15.20;;;;;;;;;;4937328;29;20495;-44
2023/11/01 06:39:36;;;;;;;17.17;15.87;;;;;;;;;;4937928;29;20709;-44
2023/11/01 06:42:02;;;;;;;16.67;15.47;;;;;;;;;;4934611;29;20418;-43
2023/11/01 06:44:29;;;;;;;16.53;15.23;;;;;;;;;;4936683;29;20413;-44
2023/11/01 06:46:55;;;;;;;13.77;12.67;;;;;;;;;;4934300;29;20507;-45
2023/11/01 06:49:21;;;;;;;17.70;15.97;;;;;;;;;;4938643;29;20411;-44
2023/11/01 06:51:47;;;;;;;15.50;14.33;;;;;;;;;;4934610;29;20420;-43
2023/11/01 06:54:13;;;;;;;15.43;14.23;;;;;;;;;;4934587;29;20492;-44
2023/11/01 06:56:45;;;;;;;14.57;13.43;;;;;;;;;;4935958;29;20442;-44
2023/11/01 06:59:12;;;;;;;19.63;17.70;;;;;;;;;;4926895;29;20755;-44
2023/11/01 07:01:38;;;;;;;13.17;12.07;;;;;;;;;;4937625;29;20435;-44
2023/11/01 07:04:04;;;;;;;14.33;13.23;;;;;;;;;;4939203;29;20416;-44
2023/11/01 07:06:30;;;;;;;15.90;14.80;;;;;;;;;;4940721;29;20520;-43
2023/11/01 07:08:56;;;;;;;14.47;13.33;;;;;;;;;;4934253;29;20420;-43
2023/11/01 07:11:24;;;;;;;15.37;14.17;;;;;;;;;;4933757;29;20437;-43
2023/11/01 07:13:50;;;;;;;16.77;15.47;;;;;;;;;;4937578;29;20412;-43
2023/11/01 07:16:16;;;;;;;18.40;16.87;;;;;;;;;;4932796;29;20517;-44
2023/11/01 07:18:42;;;;;;;13.70;12.60;;;;;;;;;;4930908;29;20436;-43
2023/11/01 07:21:11;;;;;;;13.73;12.50;;;;;;;;;;4939505;29;20440;-44
2023/11/01 07:23:37;;;;;;;11.17;10.10;;;;;;;;;;4934075;29;20442;-43
2023/11/01 07:26:03;;;;;;;12.60;11.50;;;;;;;;;;4934331;29;20800;-43
2023/11/01 07:28:30;;;;;;;14.17;13.00;;;;;;;;;;4938566;29;20471;-43
2023/11/01 07:30:56;;;;;;;12.83;11.83;;;;;;;;;;4938162;29;20445;-44
2023/11/01 07:33:23;;;;;;;12.77;11.77;;;;;;;;;;4938235;29;20780;-43
2023/11/01 07:35:49;;;;;;;12.10;11.10;;;;;;;;;;4936265;29;20461;-44
2023/11/01 07:38:15;;;;;;;12.57;11.60;;;;;;;;;;4932828;29;20407;-43
2023/11/01 07:40:41;;;;;;;11.23;10.27;;;;;;;;;;4934931;29;20446;-43
2023/11/01 07:43:07;;;;;;;12.00;11.00;;;;;;;;;;4937213;29;20424;-43
2023/11/01 07:45:33;;;;;;;11.60;10.60;;;;;;;;;;4938831;29;20456;-43
2023/11/01 07:47:59;;;;;;;11.03;10.13;;;;;;;;;;4940228;29;20467;-43
2023/11/01 07:50:25;;;;;;;12.10;11.10;;;;;;;;;;4939113;29;20439;-43
2023/11/01 07:52:51;;;;;;;12.10;11.10;;;;;;;;;;4937251;29;20416;-44
2023/11/01 07:55:17;;;;;;;12.57;11.47;;;;;;;;;;4934049;29;20448;-44
2023/11/01 07:57:43;;;;;;;12.97;11.87;;;;;;;;;;4936957;28;20506;-44
2023/11/01 08:00:10;;;;;;;9.93;9.13;;;;;;;;;;4940745;28;20452;-43
2023/11/01 08:02:36;;;;;;;12.30;11.30;;;;;;;;;;4943788;29;20415;-44
2023/11/01 08:05:04;;;;;;;11.53;10.63;;;;;;;;;;4937478;29;20509;-44
2023/11/01 08:07:30;;;;;;;11.70;10.70;;;;;;;;;;4938297;29;20537;-44
2023/11/01 08:09:56;;;;;;;11.27;10.27;;;;;;;;;;4939847;29;21019;-44
2023/11/01 08:12:22;;;;;;;11.90;10.83;;;;;;;;;;4937464;29;20411;-44
2023/11/01 08:14:50;;;;;;;12.33;11.33;;;;;;;;;;4937420;29;20436;-44
2023/11/01 08:17:15;;;;;;;12.40;11.40;;;;;;;;;;4937309;29;20454;-44
2023/11/01 08:19:41;;;;;;;11.37;10.47;;;;;;;;;;4944212;29;20478;-44
2023/11/01 08:22:10;;;;;;;12.90;11.90;;;;;;;;;;4931334;29;20446;-44
2023/11/01 08:24:38;;;;;;;11.77;10.97;;;;;;;;;;4937341;29;20418;-44
2023/11/01 08:27:04;;;;;;;12.43;11.43;;;;;;;;;;4937120;29;20989;-44
2023/11/01 08:29:31;;;;;;;11.30;10.50;;;;;;;;;;4941064;29;20421;-44
2023/11/01 08:31:57;;;;;;;12.13;11.07;;;;;;;;;;4938556;29;20410;-44
2023/11/01 08:34:23;;;;;;;12.60;11.60;;;;;;;;;;4936896;29;20530;-44
2023/11/01 08:36:49;;;;;;;13.50;12.43;;;;;;;;;;4938047;29;20914;-44
2023/11/01 08:39:15;;;;;;;14.80;13.40;;;;;;;;;;4939171;29;20490;-44
2023/11/01 08:41:40;;;;;;;13.70;12.40;;;;;;;;;;4940365;29;20946;-44
2023/11/01 08:44:06;;;;;;;11.93;10.93;;;;;;;;;;4928999;29;20907;-44
2023/11/01 08:46:32;;;;;;;14.63;13.30;;;;;;;;;;4942592;29;21092;-44
2023/11/01 08:48:58;;;;;;;14.07;12.87;;;;;;;;;;4938311;29;20421;-44
2023/11/01 08:51:25;;;;;;;13.17;12.17;;;;;;;;;;4936354;29;20820;-45
2023/11/01 08:53:51;;;;;;;12.23;11.23;;;;;;;;;;4936665;29;20435;-44
2023/11/01 08:56:17;;;;;;;13.73;12.67;;;;;;;;;;4940998;29;20527;-44
2023/11/01 08:58:43;;;;;;;14.27;13.17;;;;;;;;;;4942867;29;20419;-44
2023/11/01 09:01:09;;;;;;;13.80;12.83;;;;;;;;;;4943485;29;20485;-45
2023/11/01 09:03:35;;;;;;;18.40;17.20;;;;;;;;;;4937678;29;20415;-44
2023/11/01 09:06:01;;;;;;;55.23;50.30;;;;;;;;;;4936610;29;21030;-44
2023/11/01 09:08:27;;;;;;;66.60;60.23;;;;;;;;;;4939102;29;20432;-45
2023/11/01 09:10:53;;;;;;;78.80;71.10;;;;;;;;;;4936834;29;20441;-44
2023/11/01 09:13:19;;;;;;;71.03;64.17;;;;;;;;;;4937148;29;20409;-44
2023/11/01 09:15:45;;;;;;;61.30;57.00;;;;;;;;;;4936237;29;20420;-45
2023/11/01 09:18:11;;;;;;;62.90;58.60;;;;;;;;;;4937322;29;20481;-45
2023/11/01 09:20:37;;;;;;;42.97;40.60;;;;;;;;;;4938139;29;20573;-45
2023/11/01 09:23:03;;;;;;;34.67;32.77;;;;;;;;;;4940386;29;20429;-44
2023/11/01 09:25:29;;;;;;;29.33;27.63;;;;;;;;;;4940519;29;20443;-45
2023/11/01 09:27:55;;;;;;;26.60;25.00;;;;;;;;;;4937005;29;20460;-45
2023/11/01 09:30:21;;;;;;;25.17;23.77;;;;;;;;;;4954562;28;20488;-44
2023/11/01 09:32:47;;;;;;;25.97;24.37;;;;;;;;;;4937020;28;20906;-44
2023/11/01 09:35:13;;;;;;;22.87;21.47;;;;;;;;;;4950641;29;20903;-44
2023/11/01 09:37:39;;;;;;;21.93;20.53;;;;;;;;;;4969696;28;20922;-45
2023/11/01 09:40:10;;;;;;;18.93;17.83;;;;;;;;;;4954391;28;20441;-44
2023/11/01 09:42:37;;;;;;;18.97;17.73;;;;;;;;;;4954575;29;20506;-44
2023/11/01 09:45:05;;;;;;;21.43;20.10;;;;;;;;;;4954669;28;20421;-45
2023/11/01 09:47:32;;;;;;;23.20;21.77;;;;;;;;;;4954618;28;20456;-44
2023/11/01 09:49:59;;;;;;;18.17;16.97;;;;;;;;;;4953887;29;20437;-44
2023/11/01 09:52:30;;;;;;;19.73;18.50;;;;;;;;;;4954822;29;20682;-44
2023/11/01 09:54:56;;;;;;;19.80;18.50;;;;;;;;;;4954552;28;20415;-44
2023/11/01 09:57:23;;;;;;;17.13;15.93;;;;;;;;;;4954594;29;20417;-44
2023/11/01 09:59:50;;;;;;;19.37;18.10;;;;;;;;;;4953544;28;20439;-45
2023/11/01 10:02:16;;;;;;;22.17;20.80;;;;;;;;;;4954696;28;20446;-44
2023/11/01 10:04:42;;;;;;;21.73;20.33;;;;;;;;;;4954574;29;20472;-44
2023/11/01 10:07:09;;;;;;;28.47;26.77;;;;;;;;;;4954235;29;21294;-44
2023/11/01 10:09:41;;;;;;;32.87;30.87;;;;;;;;;;4953921;28;20395;-44
2023/11/01 10:12:08;;;;;;;37.23;35.03;;;;;;;;;;4954389;29;20444;-44
2023/11/01 10:14:34;;;;;;;43.67;41.17;;;;;;;;;;4954202;28;20418;-44
2023/11/01 10:17:01;;;;;;;33.30;31.33;;;;;;;;;;4938838;29;20425;-44
2023/11/01 10:19:27;;;;;;;34.97;32.63;;;;;;;;;;4944601;29;20821;-44
2023/11/01 10:21:53;;;;;;;24.60;23.10;;;;;;;;;;4953666;28;20510;-43
2023/11/01 10:24:21;;;;;;;24.03;22.63;;;;;;;;;;4953860;29;20421;-44
2023/11/01 10:26:47;;;;;;;23.83;22.30;;;;;;;;;;4953967;28;20869;-44
2023/11/01 10:29:13;;;;;;;26.13;24.30;;;;;;;;;;4953492;29;20396;-44
2023/11/01 10:31:39;;;;;;;22.07;20.70;;;;;;;;;;4953994;29;20430;-44
2023/11/01 10:34:12;;;;;;;22.03;20.63;;;;;;;;;;4954019;28;20466;-44
2023/11/01 10:37:05;;;;;;;23.70;22.20;;;;;;;;;;4953858;29;20421;-44
2023/11/01 10:39:33;;;;;;;24.07;22.40;;;;;;;;;;4938873;28;20436;-44
2023/11/01 10:42:01;;;;;;;25.40;23.87;;;;;;;;;;4946048;29;20415;-44
2023/11/01 10:44:27;;;;;;;24.00;22.60;;;;;;;;;;4953874;29;20415;-44
2023/11/01 10:46:53;;;;;;;42.37;39.87;;;;;;;;;;4953696;29;20467;-44
2023/11/01 10:49:19;;;;;;;61.30;56.80;;;;;;;;;;4952551;29;20425;-44
2023/11/01 10:51:46;;;;;;;44.90;42.40;;;;;;;;;;4953595;29;20431;-44
2023/11/01 10:54:13;;;;;;;33.97;32.07;;;;;;;;;;4953779;29;20411;-44
2023/11/01 10:56:39;;;;;;;35.50;33.50;;;;;;;;;;4953733;29;20450;-44
2023/11/01 10:59:20;;;;;;;40.97;38.30;;;;;;;;;;4953385;29;20420;-43
2023/11/01 11:01:50;;;;;;;29.50;27.77;;;;;;;;;;4953408;28;20442;-44
2023/11/01 11:04:22;;;;;;;30.90;29.20;;;;;;;;;;4953032;29;20512;-43
2023/11/01 11:07:11;;;;;;;34.67;32.77;;;;;;;;;;4945354;29;20468;-44
2023/11/01 11:09:38;;;;;;;42.97;40.57;;;;;;;;;;4932116;29;20468;-44
2023/11/01 11:12:17;;;;;;;41.77;39.57;;;;;;;;;;4953637;28;20753;-44
2023/11/01 11:14:47;;;;;;;44.90;42.47;;;;;;;;;;4953816;29;20472;-44
2023/11/01 11:17:14;;;;;;;54.87;51.67;;;;;;;;;;4938182;29;20410;-44
2023/11/01 11:19:59;;;;;;;49.33;46.70;;;;;;;;;;4952943;29;20773;-44
2023/11/01 11:22:25;;;;;;;58.73;55.43;;;;;;;;;;4915465;29;20446;-44
2023/11/01 11:24:55;;;;;;;52.10;49.17;;;;;;;;;;4932985;29;20917;-44
2023/11/01 11:27:48;;;;;;;52.60;49.77;;;;;;;;;;4950087;29;20794;-43
2023/11/01 11:30:14;;;;;;;51.57;48.73;;;;;;;;;;4952569;28;20995;-44
2023/11/01 11:32:40;;;;;;;53.57;50.57;;;;;;;;;;4953394;28;20391;-44
2023/11/01 11:35:19;;;;;;;52.33;49.33;;;;;;;;;;4944220;29;20899;-44
2023/11/01 11:37:45;;;;;;;48.47;45.87;;;;;;;;;;4947395;29;20428;-44
2023/11/01 11:40:11;;;;;;;37.50;35.40;;;;;;;;;;4950757;28;20440;-43
2023/11/01 11:42:40;;;;;;;42.10;39.90;;;;;;;;;;4941595;29;20417;-44
2023/11/01 11:45:06;;;;;;;35.80;33.80;;;;;;;;;;4930165;29;20471;-44
2023/11/01 11:47:32;;;;;;;32.10;30.40;;;;;;;;;;4937981;28;20456;-43
2023/11/01 11:50:10;;;;;;;32.27;30.47;;;;;;;;;;4943579;29;20951;-43
2023/11/01 11:52:38;;;;;;;27.27;25.67;;;;;;;;;;4938657;29;20490;-44
2023/11/01 11:55:04;;;;;;;26.63;25.13;;;;;;;;;;4940034;28;20909;-44
2023/11/01 11:57:30;;;;;;;29.03;27.43;;;;;;;;;;4941651;29;20450;-45
2023/11/01 12:00:10;;;;;;;33.17;31.33;;;;;;;;;;4942318;29;20446;-44
2023/11/01 12:02:37;;;;;;;38.77;36.60;;;;;;;;;;4944144;29;20392;-44
2023/11/01 12:05:04;;;;;;;41.07;38.80;;;;;;;;;;4938104;29;20497;-44
2023/11/01 12:07:30;;;;;;;48.33;45.63;;;;;;;;;;4938365;29;20463;-44
2023/11/01 12:09:56;;;;;;;58.03;54.40;;;;;;;;;;4946081;29;20436;-44
2023/11/01 12:12:23;;;;;;;62.33;58.53;;;;;;;;;;4941263;29;20410;-44
2023/11/01 12:14:59;;;;;;;61.10;57.40;;;;;;;;;;4942803;29;20937;-44
2023/11/01 12:17:25;;;;;;;57.60;54.40;;;;;;;;;;4944394;28;20794;-44
2023/11/01 12:19:53;;;;;;;47.13;44.60;;;;;;;;;;4936944;29;20487;-44
2023/11/01 12:22:19;;;;;;;49.10;46.50;;;;;;;;;;4939227;29;20434;-43
2023/11/01 12:24:45;;;;;;;44.47;42.13;;;;;;;;;;4940988;29;20420;-44
2023/11/01 12:27:11;;;;;;;39.10;37.00;;;;;;;;;;4937159;29;20450;-43
2023/11/01 12:29:47;;;;;;;46.10;43.60;;;;;;;;;;4930438;29;20951;-44
2023/11/01 12:32:15;;;;;;;48.37;45.60;;;;;;;;;;4943969;29;20472;-44
2023/11/01 12:34:50;;;;;;;50.17;47.47;;;;;;;;;;4937607;29;20567;-44
2023/11/01 12:37:18;;;;;;;44.23;41.87;;;;;;;;;;4938932;29;20453;-44
2023/11/01 12:39:59;;;;;;;42.67;40.47;;;;;;;;;;4932097;29;20547;-43
2023/11/01 12:42:26;;;;;;;46.33;43.63;;;;;;;;;;4936476;29;20780;-43
2023/11/01 12:44:54;;;;;;;46.63;43.93;;;;;;;;;;4943050;28;20803;-43
2023/11/01 12:47:20;;;;;;;40.13;37.93;;;;;;;;;;4940561;29;20536;-43
2023/11/01 12:49:47;;;;;;;48.70;45.80;;;;;;;;;;4936361;29;20520;-43
2023/11/01 12:52:13;;;;;;;44.57;42.17;;;;;;;;;;4936539;29;20384;-43
2023/11/01 12:54:45;;;;;;;44.23;41.83;;;;;;;;;;4933470;29;20440;-43
2023/11/01 12:57:15;;;;;;;44.13;41.73;;;;;;;;;;4940403;29;20423;-45
2023/11/01 12:59:41;;;;;;;41.80;39.50;;;;;;;;;;4935834;29;20400;-43
2023/11/01 13:02:07;;;;;;;47.50;44.90;;;;;;;;;;4937041;29;20403;-44
2023/11/01 13:04:34;;;;;;;55.97;52.83;;;;;;;;;;4938677;29;20396;-44
2023/11/01 13:07:00;;;;;;;51.57;48.67;;;;;;;;;;4940314;29;20492;-43
2023/11/01 13:09:27;;;;;;;57.70;54.17;;;;;;;;;;4939152;29;20433;-44
2023/11/01 13:11:53;;;;;;;64.20;60.40;;;;;;;;;;4938130;29;20420;-43
2023/11/01 13:14:22;;;;;;;56.87;53.77;;;;;;;;;;4936378;29;20605;-44
2023/11/01 13:16:48;;;;;;;62.00;58.30;;;;;;;;;;4936272;29;20443;-44
2023/11/01 13:19:14;;;;;;;61.53;57.90;;;;;;;;;;4936018;29;20429;-44
2023/11/01 13:21:40;;;;;;;49.63;46.97;;;;;;;;;;4939812;29;20439;-44
2023/11/01 13:24:07;;;;;;;45.83;43.43;;;;;;;;;;4941655;29;20405;-44
2023/11/01 13:26:33;;;;;;;52.77;50.07;;;;;;;;;;4936223;29;21000;-44
2023/11/01 13:28:59;;;;;;;47.43;45.00;;;;;;;;;;4936166;29;20388;-44
2023/11/01 13:31:26;;;;;;;41.60;39.50;;;;;;;;;;4935919;29;20972;-44
2023/11/01 13:33:52;;;;;;;42.87;40.67;;;;;;;;;;4934358;29;20387;-44
2023/11/01 13:36:18;;;;;;;41.00;38.77;;;;;;;;;;4935926;29;20961;-44
2023/11/01 13:38:44;;;;;;;37.40;35.40;;;;;;;;;;4941021;28;20388;-43
2023/11/01 13:41:10;;;;;;;37.57;35.57;;;;;;;;;;4942629;29;20788;-43
2023/11/01 13:43:36;;;;;;;40.43;38.27;;;;;;;;;;4935881;29;20422;-44
2023/11/01 13:46:03;;;;;;;33.33;31.53;;;;;;;;;;4937541;28;20800;-44
2023/11/01 13:48:29;;;;;;;32.63;30.87;;;;;;;;;;4937666;29;20389;-44
2023/11/01 13:50:55;;;;;;;28.47;26.90;;;;;;;;;;4935009;29;20423;-44
2023/11/01 13:53:22;;;;;;;27.47;25.97;;;;;;;;;;4940679;29;20405;-44
2023/11/01 13:55:49;;;;;;;26.43;25.00;;;;;;;;;;4935503;29;20399;-44
2023/11/01 13:58:18;;;;;;;27.20;25.67;;;;;;;;;;4935708;29;20433;-43
2023/11/01 14:00:46;;;;;;;27.73;26.10;;;;;;;;;;4934839;29;20836;-44
2023/11/01 14:03:12;;;;;;;26.13;24.53;;;;;;;;;;4935551;29;20425;-44
2023/11/01 14:05:41;;;;;;;28.10;26.50;;;;;;;;;;4940018;29;20773;-43
2023/11/01 14:08:08;;;;;;;29.50;27.77;;;;;;;;;;4930475;29;20448;-43
2023/11/01 14:10:35;;;;;;;29.50;27.80;;;;;;;;;;4938906;29;20435;-43
2023/11/01 14:13:03;;;;;;;29.47;27.87;;;;;;;;;;4935557;29;20436;-43
2023/11/01 14:15:33;;;;;;;28.67;27.07;;;;;;;;;;4937205;29;20419;-43
2023/11/01 14:18:04;;;;;;;26.93;25.43;;;;;;;;;;4938595;29;20834;-42
2023/11/01 14:20:30;;;;;;;26.20;24.67;;;;;;;;;;4939289;29;20434;-42